Time;durP1;ratioP1;P1;durP2;ratioP2;P2;SDS_P1;SDS_P2;PMS_P1;PMS_P2;Temp;Humidity;BMP_temperature;BMP_pressure;BME280_temperature;BME280_humidity;BME280_pressure;Samples;Min_cycle;Max_cycle;Signal;HPM_P1;HPM_P2
2021/12/20 00:00:25;;;;;;;1.77;1.67;;;;;;;23.37;28.74;94386.94;4939858;28;104452;-52
2021/12/20 00:02:58;;;;;;;1.97;1.87;;;;;;;23.36;29.10;94386.16;4944497;28;103009;-52
2021/12/20 00:05:24;;;;;;;1.77;1.67;;;;;;;23.36;29.11;94393.38;4941919;28;102815;-52
2021/12/20 00:07:50;;;;;;;1.73;1.63;;;;;;;23.36;29.21;94396.81;4951208;28;103562;-52
2021/12/20 00:10:17;;;;;;;1.80;1.70;;;;;;;23.36;28.95;94382.72;4958685;28;102779;-53
2021/12/20 00:12:45;;;;;;;2.00;1.90;;;;;;;23.35;28.83;94384.59;4958397;28;102747;-52
2021/12/20 00:15:11;;;;;;;1.97;1.87;;;;;;;23.35;29.04;94395.25;4958116;28;102995;-52
2021/12/20 00:17:37;;;;;;;1.80;1.70;;;;;;;23.35;28.78;94389.16;4941275;28;103494;-53
2021/12/20 00:20:04;;;;;;;1.50;1.40;;;;;;;23.35;28.60;94386.47;4940837;28;103358;-52
2021/12/20 00:22:30;;;;;;;2.20;2.00;;;;;;;23.35;29.05;94397.91;4943238;28;102840;-52
2021/12/20 00:24:55;;;;;;;1.73;1.63;;;;;;;23.34;28.93;94398.22;4959982;28;103224;-52
2021/12/20 00:27:21;;;;;;;1.60;1.40;;;;;;;23.34;29.01;94396.34;4947308;28;103333;-52
2021/12/20 00:29:47;;;;;;;1.67;1.57;;;;;;;23.35;28.77;94397.91;4943477;28;102693;-52
2021/12/20 00:32:16;;;;;;;1.90;1.80;;;;;;;23.34;28.66;94401.66;4957097;28;102792;-53
2021/12/20 00:34:42;;;;;;;1.63;1.53;;;;;;;23.35;28.86;94394.47;4948346;28;102710;-53
2021/12/20 00:42:41;;;;;;;1.83;1.73;;;;;;;23.34;28.89;94427.53;4941220;28;102759;-52
2021/12/20 00:45:08;;;;;;;1.70;1.60;;;;;;;23.33;29.02;94416.09;4948409;28;102802;-53
2021/12/20 00:47:34;;;;;;;1.40;1.30;;;;;;;23.34;28.65;94422.22;4948950;28;103328;-52
2021/12/20 00:50:00;;;;;;;1.40;1.30;;;;;;;23.32;29.05;94424.41;4942178;28;103640;-52
2021/12/20 00:52:25;;;;;;;1.90;1.80;;;;;;;23.33;28.75;94428.66;4941617;28;103392;-52
2021/12/20 00:54:51;;;;;;;1.57;1.47;;;;;;;23.34;28.89;94427.53;4946785;28;102801;-52
2021/12/20 00:57:17;;;;;;;1.67;1.57;;;;;;;23.33;28.63;94431.31;4958365;28;103554;-52
2021/12/20 00:59:44;;;;;;;1.57;1.47;;;;;;;23.33;28.52;94402.00;4960125;28;102695;-52
2021/12/20 01:02:10;;;;;;;1.63;1.53;;;;;;;23.32;28.73;94425.19;4957823;28;102829;-52
2021/12/20 01:04:35;;;;;;;1.70;1.60;;;;;;;23.32;28.88;94403.88;4959226;28;102761;-52
2021/12/20 01:07:01;;;;;;;2.00;1.90;;;;;;;23.31;28.51;94399.66;4947408;28;103122;-52
2021/12/20 01:09:27;;;;;;;1.57;1.47;;;;;;;23.32;28.64;94395.88;4945020;28;103198;-52
2021/12/20 01:11:54;;;;;;;1.60;1.50;;;;;;;23.32;28.99;94392.44;4942157;28;103429;-52
2021/12/20 01:14:25;;;;;;;1.43;1.33;;;;;;;23.32;28.59;94392.44;4943078;28;102608;-52
2021/12/20 01:16:53;;;;;;;1.50;1.40;;;;;;;23.33;28.55;94396.66;4942305;28;103447;-52
2021/12/20 01:19:19;;;;;;;1.80;1.70;;;;;;;23.32;28.83;94384.44;4945609;28;102973;-52
2021/12/20 01:21:45;;;;;;;1.87;1.77;;;;;;;23.31;28.82;94382.88;4953049;28;102662;-52
2021/12/20 01:24:10;;;;;;;1.70;1.60;;;;;;;23.31;29.09;94381.00;4961592;28;102699;-52
2021/12/20 01:26:36;;;;;;;1.50;1.40;;;;;;;23.31;28.75;94380.22;4956207;28;103322;-52
2021/12/20 01:29:01;;;;;;;1.60;1.50;;;;;;;23.32;28.76;94376.44;4947384;28;102945;-52
2021/12/20 01:31:27;;;;;;;1.73;1.63;;;;;;;23.32;28.64;94368.44;4953615;28;102783;-52
2021/12/20 01:33:53;;;;;;;1.73;1.63;;;;;;;23.32;28.54;94371.09;4948308;28;102663;-52
2021/12/20 01:36:18;;;;;;;2.20;1.73;;;;;;;23.31;28.61;94373.00;4947577;28;102774;-52
2021/12/20 01:38:44;;;;;;;1.70;1.60;;;;;;;23.31;28.90;94372.22;4943452;28;102885;-52
2021/12/20 01:41:10;;;;;;;1.57;1.47;;;;;;;23.33;28.93;94372.66;4941634;28;102591;-52
2021/12/20 01:43:38;;;;;;;1.63;1.53;;;;;;;23.32;28.53;94377.22;4948006;28;102775;-52
2021/12/20 01:46:04;;;;;;;1.83;1.73;;;;;;;23.32;28.92;94381.78;4958165;28;102961;-52
2021/12/20 01:48:31;;;;;;;1.67;1.57;;;;;;;23.31;28.88;94385.53;4941774;28;103386;-52
2021/12/20 01:53:33;;;;;;;1.70;1.60;;;;;;;23.31;28.51;94390.88;4959044;28;103593;-52
2021/12/20 01:55:59;;;;;;;1.27;1.17;;;;;;;23.31;28.80;94406.88;4943875;28;103062;-52
2021/12/20 01:58:27;;;;;;;1.33;1.23;;;;;;;23.31;28.89;94412.97;4956679;28;102877;-53
2021/12/20 02:03:41;;;;;;;1.70;1.60;;;;;;;23.30;28.99;94403.41;4940193;28;102950;-52
2021/12/20 02:06:16;;;;;;;1.70;1.60;;;;;;;23.30;28.73;94405.31;4959113;28;102767;-52
2021/12/20 02:08:42;;;;;;;1.30;1.20;;;;;;;23.30;28.77;94402.63;4973958;28;103261;-52
2021/12/20 02:11:09;;;;;;;1.87;1.63;;;;;;;23.30;28.35;94411.41;4958547;28;102946;-53
2021/12/20 02:13:37;;;;;;;1.40;1.30;;;;;;;23.30;28.75;94406.09;4950604;28;103250;-52
2021/12/20 02:16:04;;;;;;;2.03;1.87;;;;;;;23.31;28.82;94407.66;4945356;28;102725;-52
2021/12/20 02:18:31;;;;;;;1.60;1.50;;;;;;;23.30;29.03;94416.75;4955212;28;102823;-52
2021/12/20 02:20:58;;;;;;;1.60;1.50;;;;;;;23.30;28.65;94426.63;4952393;28;102757;-52
2021/12/20 02:23:23;;;;;;;1.30;1.20;;;;;;;23.31;28.82;94428.97;4950408;28;102966;-52
2021/12/20 02:25:49;;;;;;;1.73;1.50;;;;;;;23.32;28.61;94424.41;4949458;28;103302;-52
2021/12/20 02:28:20;;;;;;;1.40;1.30;;;;;;;23.30;28.70;94422.06;4942613;28;103165;-52
2021/12/20 02:38:46;;;;;;;1.73;1.63;;;;;;;23.29;28.38;94404.53;4956381;28;102786;-52
2021/12/20 02:41:26;;;;;;;1.30;1.20;;;;;;;23.30;28.73;94394.63;4951610;28;102958;-52
2021/12/20 02:43:56;;;;;;;1.37;1.27;;;;;;;23.29;28.26;94406.41;4947255;28;102791;-52
2021/12/20 02:49:26;;;;;;;1.33;1.23;;;;;;;23.29;28.81;94409.84;4952526;28;102801;-52
2021/12/20 02:51:58;;;;;;;1.60;1.50;;;;;;;23.29;28.78;94420.50;4941340;28;102870;-52
2021/12/20 02:54:23;;;;;;;1.50;1.40;;;;;;;23.28;28.58;94412.84;4957458;28;102695;-52
2021/12/20 02:56:50;;;;;;;1.50;1.40;;;;;;;23.29;28.40;94409.06;4959059;28;102878;-52
2021/12/20 02:59:16;;;;;;;1.50;1.40;;;;;;;23.28;28.49;94418.97;4957743;28;103059;-52
2021/12/20 03:01:50;;;;;;;1.53;1.43;;;;;;;23.30;28.31;94418.63;4947941;28;102797;-52
2021/12/20 03:04:16;;;;;;;1.27;1.17;;;;;;;23.28;28.59;94408.28;4944910;28;102920;-52
2021/12/20 03:06:46;;;;;;;1.60;1.50;;;;;;;23.29;28.41;94401.06;4953811;28;102645;-52
2021/12/20 03:09:15;;;;;;;1.37;1.27;;;;;;;23.28;28.78;94402.19;4956272;28;102693;-52
2021/12/20 03:11:42;;;;;;;1.50;1.40;;;;;;;23.28;28.58;94402.19;4946835;28;102702;-52
2021/12/20 03:14:25;;;;;;;1.50;1.40;;;;;;;23.28;28.52;94423.50;4945776;28;102654;-52
2021/12/20 03:16:54;;;;;;;1.50;1.40;;;;;;;23.28;28.78;94402.19;4953773;28;102938;-52
2021/12/20 03:19:20;;;;;;;1.60;1.50;;;;;;;23.28;28.27;94407.50;4949535;28;102606;-52
2021/12/20 03:21:46;;;;;;;1.43;1.33;;;;;;;23.28;28.76;94408.28;4950786;28;103325;-52
2021/12/20 03:24:11;;;;;;;1.50;1.40;;;;;;;23.29;28.40;94409.06;4943249;28;103223;-52
2021/12/20 03:26:37;;;;;;;1.50;1.40;;;;;;;23.28;28.21;94418.19;4947628;28;102699;-52
2021/12/20 03:29:04;;;;;;;1.50;1.40;;;;;;;23.28;28.59;94442.16;4941228;28;102711;-52
2021/12/20 03:31:30;;;;;;;1.73;1.60;;;;;;;23.29;28.46;94436.50;4940046;28;102718;-52
2021/12/20 03:33:56;;;;;;;1.50;1.40;;;;;;;23.30;28.31;94439.94;4940387;28;102745;-52
2021/12/20 03:36:22;;;;;;;1.50;1.40;;;;;;;23.30;28.67;94437.28;4940649;28;103547;-53
2021/12/20 03:38:48;;;;;;;1.60;1.50;;;;;;;23.30;28.62;94437.28;4952751;28;103200;-52
2021/12/20 03:41:13;;;;;;;1.60;1.50;;;;;;;23.31;28.47;94439.63;4955228;28;103010;-52
2021/12/20 03:43:39;;;;;;;1.80;1.70;;;;;;;23.32;28.44;94435.06;4954548;28;102938;-52
2021/12/20 03:46:05;;;;;;;1.60;1.50;;;;;;;23.32;28.39;94433.19;4946139;28;102934;-52
2021/12/20 03:48:32;;;;;;;1.53;1.43;;;;;;;23.33;28.50;94440.09;4949769;28;103126;-52
2021/12/20 03:51:01;;;;;;;1.60;1.50;;;;;;;23.35;28.24;94443.25;4938776;28;102741;-53
2021/12/20 03:53:27;;;;;;;1.47;1.37;;;;;;;23.35;28.34;94439.78;4949391;28;102926;-51
2021/12/20 03:55:53;;;;;;;1.50;1.40;;;;;;;23.36;28.31;94439.47;4942682;28;103316;-52
2021/12/20 03:58:19;;;;;;;1.70;1.60;;;;;;;23.36;28.66;94442.13;4958568;28;103403;-52
2021/12/20 04:00:45;;;;;;;1.50;1.40;;;;;;;23.40;28.56;94450.25;4955277;28;102736;-52
2021/12/20 04:03:13;;;;;;;1.63;1.53;;;;;;;23.38;28.73;94450.59;4955227;28;102720;-53
2021/12/20 04:05:39;;;;;;;1.60;1.50;;;;;;;23.35;28.39;94445.13;4954632;28;103167;-54
2021/12/20 04:08:06;;;;;;;4.00;2.37;;;;;;;23.23;28.55;94445.03;4952050;28;102825;-54
2021/12/20 04:10:32;;;;;;;4.77;2.37;;;;;;;23.14;28.55;94454.91;4954579;28;102795;-54
2021/12/20 04:12:58;;;;;;;6.37;3.47;;;;;;;23.11;29.05;94451.78;4955988;28;102789;-54
2021/12/20 04:15:24;;;;;;;5.80;3.00;;;;;;;23.08;28.92;94457.78;4961667;28;102695;-54
2021/12/20 04:17:49;;;;;;;3.27;2.97;;;;;;;23.08;29.07;94460.44;4957944;28;102573;-54
2021/12/20 04:20:15;;;;;;;3.30;3.10;;;;;;;23.09;28.71;94471.88;4960080;28;102751;-53
2021/12/20 04:22:40;;;;;;;6.50;3.47;;;;;;;23.05;29.18;94473.63;4960305;28;102831;-53
2021/12/20 04:25:08;;;;;;;5.60;3.70;;;;;;;23.06;29.07;94478.63;4956067;28;102779;-53
2021/12/20 04:27:33;;;;;;;6.00;3.43;;;;;;;23.02;29.05;94482.25;4955243;28;102619;-53
2021/12/20 04:29:59;;;;;;;4.73;3.53;;;;;;;23.02;29.29;94482.25;4950403;28;102563;-53
2021/12/20 04:32:26;;;;;;;3.93;3.60;;;;;;;23.05;29.17;94482.41;4950710;28;102865;-54
2021/12/20 04:34:51;;;;;;;4.10;3.70;;;;;;;23.04;29.45;94472.06;4944072;28;102730;-53
2021/12/20 04:37:17;;;;;;;4.80;4.40;;;;;;;23.01;29.89;94472.66;4950731;28;103812;-54
2021/12/20 04:39:42;;;;;;;6.47;5.97;;;;;;;23.05;29.69;94479.72;4957203;28;102953;-53
2021/12/20 04:42:08;;;;;;;14.07;7.87;;;;;;;23.09;29.87;94480.66;4957320;28;102731;-53
2021/12/20 04:44:35;;;;;;;8.73;4.90;;;;;;;23.00;30.26;94477.22;4960450;28;102691;-52
2021/12/20 04:47:01;;;;;;;6.07;5.47;;;;;;;23.12;30.16;94473.91;4975843;28;104524;-52
2021/12/20 04:49:27;;;;;;;4.90;4.40;;;;;;;23.20;29.69;94477.66;4962689;28;103217;-52
2021/12/20 04:51:54;;;;;;;4.93;4.60;;;;;;;23.26;29.72;94484.34;4962739;28;102786;-52
2021/12/20 04:54:20;;;;;;;5.00;4.60;;;;;;;23.29;29.89;94479.16;4962429;28;103256;-52
2021/12/20 04:56:46;;;;;;;4.30;3.90;;;;;;;23.33;28.91;94489.94;4961323;28;103592;-52
2021/12/20 04:59:11;;;;;;;5.03;4.47;;;;;;;23.32;29.00;94478.50;4961988;28;102691;-52
2021/12/20 05:01:37;;;;;;;4.87;4.30;;;;;;;23.34;29.41;94484.31;4962171;28;102799;-51
2021/12/20 05:04:03;;;;;;;4.60;4.20;;;;;;;23.33;29.20;94489.94;4960608;28;103127;-52
2021/12/20 05:06:31;;;;;;;4.40;3.93;;;;;;;23.33;29.32;94487.28;4962175;28;102817;-52
2021/12/20 05:08:57;;;;;;;4.23;3.93;;;;;;;23.35;28.92;94485.09;4961121;28;102795;-51
2021/12/20 05:11:24;;;;;;;4.30;4.00;;;;;;;23.34;29.51;94486.19;4961991;28;102832;-52
2021/12/20 05:13:49;;;;;;;3.50;3.30;;;;;;;23.33;28.87;94482.75;4961812;28;104711;-52
2021/12/20 05:16:15;;;;;;;3.83;3.53;;;;;;;23.23;29.75;94488.44;4961272;28;102838;-52
2021/12/20 05:18:41;;;;;;;4.33;4.00;;;;;;;23.27;29.60;94480.59;4960723;28;103979;-52
2021/12/20 05:21:06;;;;;;;4.30;3.90;;;;;;;23.29;29.38;94489.03;4962577;28;102631;-52
2021/12/20 05:23:32;;;;;;;4.40;4.00;;;;;;;23.30;29.18;94475.38;4961470;28;103247;-52
2021/12/20 05:25:57;;;;;;;3.53;3.23;;;;;;;23.33;29.45;94484.63;4961784;28;102680;-52
2021/12/20 05:28:23;;;;;;;4.00;3.70;;;;;;;23.33;29.66;94482.75;4961963;28;102841;-52
2021/12/20 05:30:52;;;;;;;3.77;3.47;;;;;;;23.34;29.30;94486.19;4961549;28;103070;-52
2021/12/20 05:33:17;;;;;;;3.60;3.30;;;;;;;23.33;29.66;94487.28;4962704;28;103257;-52
2021/12/20 05:35:43;;;;;;;3.03;2.83;;;;;;;23.33;29.44;94487.28;4961618;28;102672;-52
2021/12/20 05:38:08;;;;;;;3.30;3.00;;;;;;;23.33;29.29;94492.63;4961349;28;102922;-52
2021/12/20 05:40:35;;;;;;;3.33;3.03;;;;;;;23.33;29.58;94498.72;4961501;28;103033;-52
2021/12/20 05:43:01;;;;;;;3.23;3.03;;;;;;;23.33;29.11;94496.06;4961274;28;102949;-52
2021/12/20 05:45:27;;;;;;;3.20;3.00;;;;;;;23.34;29.41;94502.97;4960532;28;102729;-52
2021/12/20 05:47:52;;;;;;;3.20;3.00;;;;;;;23.34;29.07;94520.84;4961353;28;103620;-52
2021/12/20 05:50:22;;;;;;;2.50;2.30;;;;;;;23.33;29.32;94508.59;4961959;28;103355;-52
2021/12/20 05:52:49;;;;;;;2.77;2.57;;;;;;;23.34;29.39;94529.63;4958864;28;102963;-53
2021/12/20 05:55:15;;;;;;;2.70;2.50;;;;;;;23.34;29.39;94520.84;4961147;28;103960;-52
2021/12/20 05:57:41;;;;;;;2.50;2.30;;;;;;;23.32;29.22;94521.16;4961630;28;102796;-52
2021/12/20 06:00:12;;;;;;;2.60;2.40;;;;;;;23.35;28.97;94535.75;4961812;28;103048;-52
2021/12/20 06:02:38;;;;;;;2.70;2.50;;;;;;;23.35;29.15;94539.19;4961229;28;103109;-52
2021/12/20 06:05:05;;;;;;;2.70;2.50;;;;;;;23.34;29.21;94526.94;4961421;28;103288;-52
2021/12/20 06:07:31;;;;;;;2.47;2.27;;;;;;;23.35;28.59;94533.09;4959830;28;102975;-52
2021/12/20 06:09:56;;;;;;;2.00;1.90;;;;;;;23.36;28.97;94539.97;4961193;28;102883;-52
2021/12/20 06:12:22;;;;;;;2.23;2.13;;;;;;;23.35;28.72;94543.75;4960965;28;102908;-52
2021/12/20 06:14:47;;;;;;;2.23;2.00;;;;;;;23.36;28.80;94542.66;4960166;28;102815;-52
2021/12/20 06:17:13;;;;;;;2.00;1.90;;;;;;;23.37;28.88;94546.88;4961140;28;102826;-52
2021/12/20 06:19:39;;;;;;;2.00;1.90;;;;;;;23.36;28.67;94550.66;4961354;28;102856;-52
2021/12/20 06:22:07;;;;;;;2.30;2.20;;;;;;;23.36;28.98;94554.09;4960487;28;103228;-52
2021/12/20 06:24:33;;;;;;;1.90;1.80;;;;;;;23.37;28.61;94554.88;4960220;28;103234;-52
2021/12/20 06:26:59;;;;;;;2.10;2.00;;;;;;;23.37;28.88;94560.22;4960752;28;102719;-52
2021/12/20 06:29:25;;;;;;;1.83;1.73;;;;;;;23.38;28.43;94569.78;4960325;28;103448;-51
2021/12/20 06:31:51;;;;;;;1.83;1.63;;;;;;;23.38;28.46;94569.78;4960678;28;102719;-52
2021/12/20 06:34:16;;;;;;;1.60;1.50;;;;;;;23.38;28.67;94570.56;4960558;28;102764;-52
2021/12/20 06:36:42;;;;;;;1.70;1.60;;;;;;;23.39;28.50;94566.00;4959310;28;102863;-52
2021/12/20 06:39:07;;;;;;;1.70;1.60;;;;;;;23.39;28.44;94568.66;4960656;28;102834;-52
2021/12/20 06:41:33;;;;;;;1.70;1.60;;;;;;;23.38;28.52;94570.56;4960694;28;103194;-52
2021/12/20 06:44:01;;;;;;;1.53;1.43;;;;;;;23.37;28.34;94576.97;4960027;28;102892;-52
2021/12/20 06:46:27;;;;;;;1.67;1.57;;;;;;;23.38;28.63;94572.44;4960416;28;102951;-52
2021/12/20 06:48:53;;;;;;;1.93;1.83;;;;;;;23.38;28.56;94570.56;4960781;28;102833;-52
2021/12/20 06:51:18;;;;;;;1.70;1.60;;;;;;;23.39;28.48;94574.00;4959973;28;102689;-52
2021/12/20 06:53:44;;;;;;;1.40;1.30;;;;;;;23.38;28.85;94572.44;4960826;28;103491;-52
2021/12/20 06:56:12;;;;;;;1.63;1.53;;;;;;;23.37;28.74;94569.00;4960416;28;102781;-52
2021/12/20 06:58:37;;;;;;;1.50;1.40;;;;;;;23.38;28.30;94567.88;4959658;28;102715;-52
2021/12/20 07:01:03;;;;;;;1.30;1.20;;;;;;;23.38;28.25;94564.44;4960229;28;102792;-52
2021/12/20 07:03:29;;;;;;;1.53;1.43;;;;;;;23.37;28.65;94566.31;4960348;28;102720;-52
2021/12/20 07:05:54;;;;;;;1.47;1.37;;;;;;;23.38;28.31;94559.09;4959811;28;103225;-52
2021/12/20 07:08:20;;;;;;;1.50;1.40;;;;;;;23.37;28.28;94568.22;4960369;28;102801;-52
2021/12/20 07:10:46;;;;;;;1.37;1.30;;;;;;;23.37;28.18;94569.00;4960238;28;102675;-51
2021/12/20 07:13:11;;;;;;;1.40;1.30;;;;;;;23.38;28.67;94567.09;4960069;28;103346;-52
2021/12/20 07:15:38;;;;;;;1.40;1.30;;;;;;;23.38;28.38;94570.56;4960421;28;102681;-52
2021/12/20 07:18:04;;;;;;;1.30;1.20;;;;;;;23.38;28.29;94567.09;4961088;28;102831;-52
2021/12/20 07:20:30;;;;;;;1.40;1.30;;;;;;;23.37;28.54;94560.22;4959336;28;102827;-52
2021/12/20 07:22:55;;;;;;;1.70;1.40;;;;;;;23.37;28.65;94568.22;4959919;28;103276;-52
2021/12/20 07:25:21;;;;;;;2.20;2.10;;;;;;;23.21;28.61;94561.81;4959799;28;102870;-52
2021/12/20 07:27:48;;;;;;;3.00;2.80;;;;;;;23.13;29.04;94567.94;4959796;28;102673;-52
2021/12/20 07:30:15;;;;;;;2.70;2.43;;;;;;;23.10;28.93;94574.69;4959732;28;102814;-52
2021/12/20 07:32:40;;;;;;;2.47;2.37;;;;;;;23.18;28.58;94567.75;4960383;28;102657;-52
2021/12/20 07:35:06;;;;;;;2.70;2.50;;;;;;;23.26;28.50;94569.66;4960283;28;103121;-52
2021/12/20 07:37:32;;;;;;;2.40;2.27;;;;;;;23.31;28.65;94564.13;4960530;28;103004;-52
2021/12/20 07:39:57;;;;;;;2.13;2.03;;;;;;;23.33;28.22;94564.59;4959464;28;103169;-52
2021/12/20 07:42:23;;;;;;;2.10;2.00;;;;;;;23.34;28.51;94566.16;4959319;28;103870;-52
2021/12/20 07:44:48;;;;;;;1.77;1.63;;;;;;;23.34;28.75;94556.28;4959055;28;103788;-52
2021/12/20 07:47:14;;;;;;;2.00;1.90;;;;;;;23.34;28.80;94571.47;4960786;28;103108;-52
2021/12/20 07:49:40;;;;;;;1.70;1.60;;;;;;;23.37;28.61;94573.53;4959621;28;103404;-52
2021/12/20 07:52:06;;;;;;;1.97;1.87;;;;;;;23.37;28.50;94578.88;4960000;28;103231;-52
2021/12/20 07:54:31;;;;;;;1.80;1.70;;;;;;;23.36;28.71;94575.44;4959626;28;102955;-52
2021/12/20 07:56:57;;;;;;;1.93;1.80;;;;;;;23.37;28.35;94576.97;4960173;28;102747;-52
2021/12/20 07:59:23;;;;;;;1.60;1.50;;;;;;;23.36;28.58;94580.75;4959765;28;102723;-52
2021/12/20 08:01:49;;;;;;;1.70;1.60;;;;;;;23.37;28.27;94592.97;4959646;28;102758;-52
2021/12/20 08:04:15;;;;;;;2.20;2.10;;;;;;;23.38;28.75;94581.22;4958261;28;102731;-52
2021/12/20 08:06:43;;;;;;;1.70;1.60;;;;;;;23.44;28.02;94586.38;4960169;28;102663;-52
2021/12/20 08:09:10;;;;;;;1.50;1.40;;;;;;;23.43;28.47;94588.25;4959460;28;103304;-52
2021/12/20 08:11:36;;;;;;;1.33;1.23;;;;;;;23.44;28.25;94589.03;4959714;28;103749;-52
2021/12/20 08:14:03;;;;;;;1.67;1.57;;;;;;;23.42;28.30;94595.47;4959138;28;103181;-52
2021/12/20 08:16:29;;;;;;;1.50;1.40;;;;;;;23.44;28.17;94603.16;4959562;28;102768;-52
2021/12/20 08:18:54;;;;;;;1.70;1.60;;;;;;;23.42;28.45;94595.47;4959209;28;103348;-52
2021/12/20 08:21:21;;;;;;;1.40;1.30;;;;;;;23.42;28.12;94592.81;4974077;28;103411;-52
2021/12/20 08:23:47;;;;;;;1.03;1.03;;;;;;;23.45;27.93;94588.72;4959272;28;102661;-52
2021/12/20 08:26:13;;;;;;;1.43;1.33;;;;;;;23.46;28.10;94594.81;4957388;28;102820;-52
2021/12/20 08:28:39;;;;;;;1.40;1.30;;;;;;;23.44;28.28;94600.47;4958845;28;103214;-52
2021/12/20 08:31:06;;;;;;;1.37;1.27;;;;;;;23.45;28.29;94588.72;4959974;28;102792;-52
2021/12/20 08:33:32;;;;;;;1.00;1.00;;;;;;;23.45;27.98;94604.72;4959151;28;102883;-52
2021/12/20 08:36:05;;;;;;;1.47;1.37;;;;;;;23.44;28.06;94595.16;4958924;28;102689;-52
2021/12/20 08:38:31;;;;;;;1.30;1.20;;;;;;;23.45;27.85;94603.94;4958179;28;103258;-52
2021/12/20 08:40:57;;;;;;;1.17;1.13;;;;;;;23.44;27.98;94608.47;4959086;28;103359;-52
2021/12/20 08:43:23;;;;;;;1.20;1.20;;;;;;;23.44;28.03;94603.16;4958684;28;103021;-52
2021/12/20 08:45:49;;;;;;;1.30;1.20;;;;;;;23.44;27.78;94603.16;4959513;28;103190;-52
2021/12/20 08:48:16;;;;;;;1.13;1.13;;;;;;;23.44;27.68;94600.47;4958827;28;103194;-52
2021/12/20 08:50:42;;;;;;;1.03;1.03;;;;;;;23.43;27.69;94604.25;4958793;28;102712;-52
2021/12/20 08:53:10;;;;;;;1.23;1.23;;;;;;;23.44;28.29;94610.34;4962470;28;102716;-52
2021/12/20 08:55:37;;;;;;;1.00;1.00;;;;;;;23.42;28.04;94600.03;4963441;28;102919;-52
2021/12/20 08:58:04;;;;;;;1.17;1.07;;;;;;;23.41;28.25;94607.22;4962122;28;103365;-52
2021/12/20 09:00:32;;;;;;;0.77;0.77;;;;;;;23.42;27.73;94597.34;4961895;28;103465;-51
2021/12/20 09:02:58;;;;;;;1.20;1.10;;;;;;;23.42;28.17;94592.81;4961739;28;103648;-51
2021/12/20 09:05:25;;;;;;;0.87;0.87;;;;;;;23.41;27.78;94593.13;4962280;28;102767;-52
2021/12/20 09:07:51;;;;;;;1.87;1.30;;;;;;;23.40;28.17;94592.34;4962251;28;102799;-51
2021/12/20 09:10:17;;;;;;;1.20;1.10;;;;;;;23.40;28.32;94588.91;4961583;28;102643;-52
2021/12/20 09:12:44;;;;;;;1.07;1.07;;;;;;;23.41;28.23;94598.44;4962064;28;102863;-52
2021/12/20 09:15:15;;;;;;;0.90;0.90;;;;;;;23.41;28.20;94595.78;4962881;28;102594;-52
2021/12/20 09:17:41;;;;;;;1.60;1.00;;;;;;;23.39;28.16;94593.44;4962094;28;103440;-52
2021/12/20 09:20:08;;;;;;;1.13;1.03;;;;;;;23.41;28.08;94598.44;4962038;28;103209;-52
2021/12/20 09:22:39;;;;;;;0.90;0.90;;;;;;;23.40;28.07;94610.22;4961168;28;102727;-52
2021/12/20 09:25:06;;;;;;;0.77;0.77;;;;;;;23.41;27.72;94598.44;4962693;28;103237;-51
2021/12/20 09:27:32;;;;;;;0.90;0.90;;;;;;;23.41;27.69;94583.25;4962100;28;103029;-52
2021/12/20 09:29:58;;;;;;;1.30;1.23;;;;;;;23.40;28.02;94586.22;4961935;28;102747;-51
2021/12/20 09:32:23;;;;;;;1.10;1.00;;;;;;;23.41;28.21;94577.91;4961417;28;102843;-51
2021/12/20 09:34:49;;;;;;;0.97;0.90;;;;;;;23.41;28.21;94587.78;4962628;28;103358;-52
2021/12/20 09:37:14;;;;;;;1.23;1.13;;;;;;;23.40;27.98;94586.22;4961906;28;102742;-52
2021/12/20 09:39:42;;;;;;;1.07;0.97;;;;;;;23.40;28.00;94584.34;4961978;28;103096;-51
2021/12/20 09:42:10;;;;;;;0.80;0.80;;;;;;;23.42;27.80;94584.03;4961828;28;102763;-52
2021/12/20 09:44:35;;;;;;;0.90;0.90;;;;;;;23.41;27.86;94572.56;4961112;28;102780;-51
2021/12/20 09:47:02;;;;;;;0.83;0.83;;;;;;;23.45;27.78;94571.94;4962098;28;103639;-51
2021/12/20 09:49:30;;;;;;;0.97;0.93;;;;;;;23.48;27.70;94566.75;4961467;28;102672;-52
2021/12/20 09:51:58;;;;;;;1.50;0.90;;;;;;;23.53;28.01;94590.59;4961522;28;102599;-51
2021/12/20 09:54:24;;;;;;;0.80;0.80;;;;;;;23.61;27.54;94570.34;4960127;28;102752;-52
2021/12/20 09:56:53;;;;;;;0.97;0.97;;;;;;;23.59;27.75;94568.00;4961270;28;102952;-52
2021/12/20 09:59:20;;;;;;;0.70;0.70;;;;;;;23.54;28.19;94549.47;4961705;28;103054;-52
2021/12/20 10:01:47;;;;;;;0.60;0.60;;;;;;;23.54;27.64;94560.16;4961554;28;103617;-51
2021/12/20 10:04:13;;;;;;;0.70;0.70;;;;;;;23.53;27.94;94561.25;4961543;28;102759;-51
2021/12/20 10:06:39;;;;;;;1.00;0.93;;;;;;;23.55;28.06;94551.03;4960259;28;103446;-52
2021/12/20 10:09:12;;;;;;;0.87;0.87;;;;;;;23.56;27.62;94555.28;4961712;28;103816;-51
2021/12/20 10:11:39;;;;;;;0.60;0.60;;;;;;;23.59;28.15;94562.66;4961162;28;103046;-52
2021/12/20 10:14:07;;;;;;;0.80;0.80;;;;;;;23.60;27.98;94580.22;4961607;28;102820;-52
2021/12/20 10:16:34;;;;;;;0.80;0.80;;;;;;;23.64;27.69;94570.47;4960186;28;103164;-52
2021/12/20 10:19:00;;;;;;;0.73;0.70;;;;;;;23.64;28.10;94575.81;4961193;28;103533;-51
2021/12/20 10:21:38;;;;;;;0.93;0.70;;;;;;;23.61;27.98;94578.34;4961613;28;102706;-52
2021/12/20 10:24:04;;;;;;;0.70;0.70;;;;;;;23.61;28.23;94579.13;4961840;28;102681;-52
2021/12/20 10:26:38;;;;;;;0.70;0.70;;;;;;;23.61;28.29;94573.78;4960793;28;102773;-52
2021/12/20 10:29:16;;;;;;;1.00;0.70;;;;;;;23.60;28.00;94577.56;4961443;28;102785;-51
2021/12/20 10:31:42;;;;;;;0.70;0.70;;;;;;;23.63;27.96;94574.25;4961378;28;102875;-52
2021/12/20 10:34:07;;;;;;;0.67;0.67;;;;;;;23.60;28.21;94596.22;4976635;28;102795;-51
2021/12/20 10:36:33;;;;;;;0.83;0.83;;;;;;;23.59;27.98;94583.22;4961427;28;102745;-52
2021/12/20 10:39:00;;;;;;;0.60;0.60;;;;;;;23.59;28.23;94581.31;4961094;28;102849;-52
2021/12/20 10:41:36;;;;;;;0.70;0.70;;;;;;;23.59;28.07;94569.88;4961146;28;102840;-51
2021/12/20 10:44:14;;;;;;;0.90;0.90;;;;;;;23.58;27.90;94584.31;4959963;28;103168;-52
2021/12/20 10:46:49;;;;;;;1.13;0.63;;;;;;;23.57;27.80;94577.41;4961298;28;103204;-52
2021/12/20 10:49:15;;;;;;;0.77;0.77;;;;;;;23.56;28.31;94573.94;4959943;28;102705;-52
2021/12/20 10:51:49;;;;;;;0.60;0.60;;;;;;;23.56;27.80;94578.50;4961289;28;103247;-52
2021/12/20 10:54:19;;;;;;;0.50;0.50;;;;;;;23.59;27.99;94576.00;4961651;28;102738;-52
2021/12/20 10:56:52;;;;;;;0.50;0.50;;;;;;;23.56;27.74;94579.28;4960541;28;102718;-52
2021/12/20 10:59:22;;;;;;;0.60;0.60;;;;;;;23.56;27.93;94570.50;4960608;28;103244;-52
2021/12/20 11:04:37;;;;;;;0.70;0.70;;;;;;;23.55;28.11;94577.72;4960434;28;102690;-51
2021/12/20 11:09:43;;;;;;;0.57;0.57;;;;;;;23.56;28.23;94567.81;4958152;28;103318;-52
2021/12/20 11:12:12;;;;;;;0.60;0.60;;;;;;;23.56;28.24;94571.28;4959821;28;102866;-51
2021/12/20 11:14:44;;;;;;;0.60;0.60;;;;;;;23.56;28.24;94575.81;4960319;28;102752;-52
2021/12/20 11:17:14;;;;;;;0.70;0.60;;;;;;;23.58;27.93;94566.44;4960031;28;102657;-52
2021/12/20 11:19:44;;;;;;;0.60;0.60;;;;;;;23.56;28.02;94559.81;4960606;28;103150;-52
2021/12/20 11:22:14;;;;;;;0.70;0.70;;;;;;;23.55;27.98;94553.72;4959891;28;102795;-51
2021/12/20 11:24:49;;;;;;;0.70;0.70;;;;;;;23.56;28.07;94557.16;4960789;28;102663;-52
2021/12/20 11:27:39;;;;;;;0.80;0.80;;;;;;;23.55;28.28;94555.59;4960456;28;102779;-52
2021/12/20 11:30:15;;;;;;;0.67;0.50;;;;;;;23.57;27.70;94548.09;4960354;28;103641;-52
2021/12/20 11:32:42;;;;;;;0.50;0.47;;;;;;;23.58;28.43;94555.75;4957986;28;103047;-52
2021/12/20 11:35:09;;;;;;;0.70;0.70;;;;;;;23.58;28.27;94553.09;4961013;28;102832;-52
2021/12/20 11:37:35;;;;;;;0.70;0.60;;;;;;;23.60;28.17;94560.78;4960358;28;103212;-52
2021/12/20 11:40:05;;;;;;;0.73;0.73;;;;;;;23.60;27.92;94571.44;4959981;28;103615;-52
2021/12/20 11:42:30;;;;;;;0.50;0.50;;;;;;;23.60;28.41;94564.22;4959955;28;102864;-52
2021/12/20 11:45:00;;;;;;;0.70;0.70;;;;;;;23.61;27.95;94568.44;4959349;28;102887;-51
2021/12/20 11:47:33;;;;;;;0.50;0.47;;;;;;;23.59;28.37;94578.66;4958156;28;102689;-52
2021/12/20 11:50:03;;;;;;;0.67;0.67;;;;;;;23.59;28.17;94573.31;4960341;28;103314;-52